Time;durP1;ratioP1;P1;durP2;ratioP2;P2;SDS_P1;SDS_P2;PMS_P1;PMS_P2;Temp;Humidity;BMP_temperature;BMP_pressure;BME280_temperature;BME280_humidity;BME280_pressure;Samples;Min_cycle;Max_cycle;Signal;HPM_P1;HPM_P2
2022/12/30 00:00:48;;;;;;;;;;;;;;;-144.47;100.00;61586.06;4948544;28;19918;-81
2022/12/30 00:03:13;;;;;;;;;;;;;;;-144.47;100.00;61586.06;4950469;29;19937;-83
2022/12/30 00:05:39;;;;;;;;;;;;;;;-144.47;100.00;61586.06;4965216;28;19917;-83
2022/12/30 00:08:45;;;;;;;;;;;;;;;-144.47;100.00;61586.06;4962766;28;20333;-82
2022/12/30 00:10:50;;;;;;;;;;;;;;;-144.47;100.00;61586.06;4947228;28;19925;-83
2022/12/30 00:35:15;;;;;;;;;;;;;;;-144.47;100.00;61586.06;4950415;28;20301;-83
2022/12/30 00:37:40;;;;;;;;;;;;;;;-144.47;100.00;61586.06;4943913;29;19958;-85
2022/12/30 00:40:06;;;;;;;;;;;;;;;-144.47;100.00;61586.06;4950164;29;20015;-84
2022/12/30 00:45:15;;;;;;;;;;;;;;;-144.47;100.00;61586.06;4947239;28;19918;-81
2022/12/30 00:47:40;;;;;;;;;;;;;;;-144.47;100.00;61586.06;4946173;28;20274;-81
2022/12/30 00:58:19;;;;;;;;;;;;;;;-144.47;100.00;61586.06;4946924;28;19922;-81
2022/12/30 01:00:44;;;;;;;;;;;;;;;-144.47;100.00;61586.06;4960580;28;20281;-82
2022/12/30 01:03:09;;;;;;;;;;;;;;;-144.47;100.00;61586.06;4968494;28;19918;-82
2022/12/30 01:05:37;;;;;;;;;;;;;;;-144.47;100.00;61586.06;4959402;28;19919;-82
2022/12/30 01:08:02;;;;;;;;;;;;;;;-144.47;100.00;61586.06;4951135;29;19987;-81
2022/12/30 01:10:28;;;;;;;;;;;;;;;-144.47;100.00;61586.06;4944254;29;19923;-84
2022/12/30 01:12:53;;;;;;;;;;;;;;;-144.47;100.00;61586.06;4947078;29;19925;-81
2022/12/30 01:15:18;;;;;;;;;;;;;;;-144.47;100.00;61586.06;4946055;29;19926;-81
2022/12/30 01:17:44;;;;;;;;;;;;;;;-144.47;100.00;61586.06;4946392;28;19918;-81
2022/12/30 01:20:09;;;;;;;;;;;;;;;-144.47;100.00;61586.06;4945478;28;20256;-82
2022/12/30 01:22:34;;;;;;;;;;;;;;;-144.47;100.00;61586.06;4947852;28;20424;-80
2022/12/30 01:25:00;;;;;;;;;;;;;;;-144.47;100.00;61586.06;4941913;28;19919;-80
2022/12/30 01:27:25;;;;;;;;;;;;;;;-144.47;100.00;61586.06;4951805;29;20016;-81
2022/12/30 01:29:51;;;;;;;;;;;;;;;-144.47;100.00;61586.06;4946715;29;19919;-80
2022/12/30 01:32:20;;;;;;;;;;;;;;;-144.47;100.00;61586.06;4952919;29;19930;-83
2022/12/30 01:34:46;;;;;;;;;;;;;;;-144.47;100.00;61586.06;4951947;28;19918;-80
2022/12/30 01:37:12;;;;;;;;;;;;;;;-144.47;100.00;61586.06;4944855;28;20418;-80
2022/12/30 01:39:38;;;;;;;;;;;;;;;-144.47;100.00;61586.06;4952394;28;19918;-79
2022/12/30 01:42:05;;;;;;;;;;;;;;;-144.47;100.00;61586.06;4950660;28;20328;-80
2022/12/30 01:44:48;;;;;;;;;;;;;;;-144.47;100.00;61586.06;4945733;29;19962;-80
2022/12/30 01:47:29;;;;;;;;;;;;;;;-144.47;100.00;61586.06;4950163;29;19922;-81
2022/12/30 01:49:57;;;;;;;;;;;;;;;-144.47;100.00;61586.06;4949776;28;20434;-81
2022/12/30 01:52:23;;;;;;;;;;;;;;;-144.47;100.00;61586.06;4948487;29;19926;-82
2022/12/30 01:54:49;;;;;;;;;;;;;;;-144.47;100.00;61586.06;4950841;29;19919;-82
2022/12/30 01:57:15;;;;;;;;;;;;;;;-144.47;100.00;61586.06;4946601;28;19919;-80
2022/12/30 01:59:42;;;;;;;;;;;;;;;-144.47;100.00;61586.06;4949904;29;20433;-84
2022/12/30 02:02:09;;;;;;;;;;;;;;;-144.47;100.00;61586.06;4946864;28;20725;-82
2022/12/30 02:04:34;;;;;;;;;;;;;;;-144.47;100.00;61586.06;4949107;28;19941;-82
2022/12/30 02:07:16;;;;;;;;;;;;;;;-144.47;100.00;61586.06;4951470;29;19942;-85
2022/12/30 02:09:43;;;;;;;;;;;;;;;-144.47;100.00;61586.06;4950995;28;19925;-79
2022/12/30 02:12:08;;;;;;;;;;;;;;;-144.47;100.00;61586.06;4945652;29;19918;-81
2022/12/30 02:14:36;;;;;;;;;;;;;;;-144.47;100.00;61586.06;4952611;29;20362;-81
2022/12/30 02:17:16;;;;;;;;;;;;;;;-144.47;100.00;61586.06;4950936;29;19929;-82
2022/12/30 02:19:45;;;;;;;;;;;;;;;-144.47;100.00;61586.06;4946458;28;20349;-81
2022/12/30 02:22:10;;;;;;;;;;;;;;;-144.47;100.00;61586.06;4948461;28;19918;-81
2022/12/30 02:24:35;;;;;;;;;;;;;;;-144.47;100.00;61586.06;4950642;28;19925;-80
2022/12/30 02:27:10;;;;;;;;;;;;;;;-144.47;100.00;61586.06;4949422;29;19919;-81
2022/12/30 02:30:00;;;;;;;;;;;;;;;-144.47;100.00;61586.06;4944984;29;19919;-81
2022/12/30 02:32:43;;;;;;;;;;;;;;;-144.47;100.00;61586.06;4951210;29;20399;-81
2022/12/30 02:35:22;;;;;;;;;;;;;;;-144.47;100.00;61586.06;4952509;28;20389;-80
2022/12/30 02:38:00;;;;;;;;;;;;;;;-144.47;100.00;61586.06;4951607;28;19918;-81
2022/12/30 02:44:36;;;;;;;;;;;;;;;-144.47;100.00;61586.06;4951487;28;20001;-82
2022/12/30 02:46:06;;;;;;;;;;;;;;;-144.47;100.00;61586.06;4947773;28;20301;-81
2022/12/30 02:48:32;;;;;;;;;;;;;;;-144.47;100.00;61586.06;4950441;29;19918;-80
2022/12/30 02:53:42;;;;;;;;;;;;;;;-144.47;100.00;61586.06;4949718;29;19922;-79
2022/12/30 02:56:08;;;;;;;;;;;;;;;-144.47;100.00;61586.06;4947963;29;19918;-81
2022/12/30 02:58:35;;;;;;;;;;;;;;;-144.47;100.00;61586.06;4948981;29;19919;-81
2022/12/30 03:04:09;;;;;;;;;;;;;;;-144.47;100.00;61586.06;4951490;28;19979;-81
2022/12/30 03:06:53;;;;;;;;;;;;;;;-144.47;100.00;61586.06;4948879;29;19919;-83
2022/12/30 03:09:37;;;;;;;;;;;;;;;-144.47;100.00;61586.06;4951169;29;19953;-82
2022/12/30 03:12:02;;;;;;;;;;;;;;;-144.47;100.00;61586.06;4945677;28;19923;-81
2022/12/30 03:14:30;;;;;;;;;;;;;;;-144.47;100.00;61586.06;4953204;28;19918;-81
2022/12/30 03:16:58;;;;;;;;;;;;;;;-144.47;100.00;61586.06;4948644;29;20013;-82
2022/12/30 03:19:25;;;;;;;;;;;;;;;-144.47;100.00;61586.06;4947746;28;19923;-80
2022/12/30 03:21:53;;;;;;;;;;;;;;;-144.47;100.00;61586.06;4959039;28;20021;-82
2022/12/30 03:27:07;;;;;;;;;;;;;;;-144.47;100.00;61586.06;4952192;28;20405;-84
2022/12/30 03:29:46;;;;;;;;;;;;;;;-144.47;100.00;61586.06;4946316;28;20461;-83
2022/12/30 03:32:13;;;;;;;;;;;;;;;-144.47;100.00;61586.06;4948627;28;19919;-81
2022/12/30 03:34:39;;;;;;;;;;;;;;;-144.47;100.00;61586.06;4950402;28;20366;-82
2022/12/30 03:37:22;;;;;;;;;;;;;;;-144.47;100.00;61586.06;4948972;28;19943;-81
2022/12/30 03:39:54;;;;;;;;;;;;;;;-144.47;100.00;61586.06;4955791;28;19926;-82
2022/12/30 03:42:20;;;;;;;;;;;;;;;-144.47;100.00;61586.06;4948162;28;19922;-83
2022/12/30 03:44:46;;;;;;;;;;;;;;;-144.47;100.00;61586.06;4941729;28;19918;-82
2022/12/30 03:47:12;;;;;;;;;;;;;;;-144.47;100.00;61586.06;4951737;28;19918;-85
2022/12/30 03:49:40;;;;;;;;;;;;;;;-144.47;100.00;61586.06;4946416;28;20564;-84
2022/12/30 03:52:06;;;;;;;;;;;;;;;-144.47;100.00;61586.06;4948392;28;20009;-83
2022/12/30 03:54:31;;;;;;;;;;;;;;;-144.47;100.00;61586.06;4947279;28;20036;-84
2022/12/30 03:56:57;;;;;;;;;;;;;;;-144.47;100.00;61586.06;4948405;28;19923;-88
2022/12/30 03:59:22;;;;;;;;;;;;;;;-144.47;100.00;61586.06;4950069;28;19922;-86
2022/12/30 04:01:47;;;;;;;;;;;;;;;-144.47;100.00;61586.06;4935558;28;19919;-87
2022/12/30 04:04:12;;;;;;;;;;;;;;;-144.47;100.00;61586.06;4948358;28;19919;-87
2022/12/30 04:06:38;;;;;;;;;;;;;;;-144.47;100.00;61586.06;4950448;28;19925;-86
2022/12/30 04:09:03;;;;;;;;;;;;;;;-144.47;100.00;61586.06;4940945;28;19918;-87
2022/12/30 04:11:29;;;;;;;;;;;;;;;-144.47;100.00;61586.06;4966645;28;20012;-87
2022/12/30 04:13:54;;;;;;;;;;;;;;;-144.47;100.00;61586.06;4947356;28;20025;-85
2022/12/30 04:16:19;;;;;;;;;;;;;;;-144.47;100.00;61586.06;4944747;29;19918;-85
2022/12/30 04:18:44;;;;;;;;;;;;;;;-144.47;100.00;61586.06;4955697;29;19918;-85
2022/12/30 04:21:10;;;;;;;;;;;;;;;-144.47;100.00;61586.06;4956030;28;20294;-86
2022/12/30 04:23:36;;;;;;;;;;;;;;;-144.47;100.00;61586.06;4944685;29;20372;-88
2022/12/30 04:26:01;;;;;;;;;;;;;;;-144.47;100.00;61586.06;4964336;28;19922;-87
2022/12/30 04:28:26;;;;;;;;;;;;;;;-144.47;100.00;61586.06;4950216;28;19922;-88
2022/12/30 04:30:51;;;;;;;;;;;;;;;-144.47;100.00;61586.06;4947539;29;19953;-85
2022/12/30 04:33:17;;;;;;;;;;;;;;;-144.47;100.00;61586.06;4947832;28;19919;-84
2022/12/30 04:35:42;;;;;;;;;;;;;;;-144.47;100.00;61586.06;4947016;28;19968;-85
2022/12/30 04:38:07;;;;;;;;;;;;;;;-144.47;100.00;61586.06;4950192;29;20332;-85
2022/12/30 04:40:33;;;;;;;;;;;;;;;-144.47;100.00;61586.06;4950363;28;19984;-84
2022/12/30 04:42:58;;;;;;;;;;;;;;;-144.47;100.00;61586.06;4944165;29;20040;-84
2022/12/30 04:45:26;;;;;;;;;;;;;;;-144.47;100.00;61586.06;4947361;29;19926;-84
2022/12/30 04:47:52;;;;;;;;;;;;;;;-144.47;100.00;61586.06;4944137;28;20352;-85
2022/12/30 04:50:17;;;;;;;;;;;;;;;-144.47;100.00;61586.06;4946469;28;19918;-86
2022/12/30 04:52:42;;;;;;;;;;;;;;;-144.47;100.00;61586.06;4947008;29;19995;-84
2022/12/30 04:55:08;;;;;;;;;;;;;;;-144.47;100.00;61586.06;4951527;28;20013;-86
2022/12/30 04:57:33;;;;;;;;;;;;;;;-144.47;100.00;61586.06;4943999;29;20297;-85
2022/12/30 04:59:58;;;;;;;;;;;;;;;-144.47;100.00;61586.06;4951271;28;19933;-85
2022/12/30 05:02:24;;;;;;;;;;;;;;;-144.47;100.00;61586.06;4947998;29;19918;-84
2022/12/30 05:04:49;;;;;;;;;;;;;;;-144.47;100.00;61586.06;4951773;28;19923;-84
2022/12/30 05:07:14;;;;;;;;;;;;;;;-144.47;100.00;61586.06;4948383;29;19968;-82
2022/12/30 05:09:39;;;;;;;;;;;;;;;-144.47;100.00;61586.06;4946622;29;19919;-83
2022/12/30 05:12:05;;;;;;;;;;;;;;;-144.47;100.00;61586.06;4949409;29;19960;-83
2022/12/30 05:14:30;;;;;;;;;;;;;;;-144.47;100.00;61586.06;4946695;29;19926;-84
2022/12/30 05:16:56;;;;;;;;;;;;;;;-144.47;100.00;61586.06;4948518;29;19980;-83
2022/12/30 05:19:21;;;;;;;;;;;;;;;-144.47;100.00;61586.06;4947884;29;19918;-84
2022/12/30 05:21:46;;;;;;;;;;;;;;;-144.47;100.00;61586.06;4947179;28;19918;-84
2022/12/30 05:26:55;;;;;;;;;;;;;;;-144.47;100.00;61586.06;4948432;29;19919;-83
2022/12/30 05:29:21;;;;;;;;;;;;;;;-144.47;100.00;61586.06;4948018;29;19922;-82
2022/12/30 05:31:46;;;;;;;;;;;;;;;-144.47;100.00;61586.06;4947303;29;19958;-82
2022/12/30 05:34:11;;;;;;;;;;;;;;;-144.47;100.00;61586.06;4949058;28;19969;-83
2022/12/30 05:36:37;;;;;;;;;;;;;;;-144.47;100.00;61586.06;4949547;28;19926;-83
2022/12/30 05:39:02;;;;;;;;;;;;;;;-144.47;100.00;61586.06;4948892;29;19929;-82
2022/12/30 05:41:28;;;;;;;;;;;;;;;-144.47;100.00;61586.06;4946950;29;19927;-82
2022/12/30 05:43:53;;;;;;;;;;;;;;;-144.47;100.00;61586.06;4946844;28;19919;-82
2022/12/30 05:46:21;;;;;;;;;;;;;;;-144.47;100.00;61586.06;4947506;29;19922;-83
2022/12/30 05:48:47;;;;;;;;;;;;;;;-144.47;100.00;61586.06;4947286;28;20380;-83
2022/12/30 05:51:12;;;;;;;;;;;;;;;-144.47;100.00;61586.06;4947975;29;19957;-81
2022/12/30 05:53:38;;;;;;;;;;;;;;;-144.47;100.00;61586.06;4945845;28;20370;-82
2022/12/30 05:56:03;;;;;;;;;;;;;;;-144.47;100.00;61586.06;4948685;28;19922;-82
2022/12/30 05:58:28;;;;;;;;;;;;;;;-144.47;100.00;61586.06;4945321;29;19969;-82
2022/12/30 06:00:55;;;;;;;;;;;;;;;-144.47;100.00;61586.06;4951406;29;19922;-81
2022/12/30 06:03:21;;;;;;;;;;;;;;;-144.47;100.00;61586.06;4951220;28;19996;-81
2022/12/30 06:05:46;;;;;;;;;;;;;;;-144.47;100.00;61586.06;4953550;28;19922;-81
2022/12/30 06:08:11;;;;;;;;;;;;;;;-144.47;100.00;61586.06;4953536;28;19918;-81
2022/12/30 06:10:37;;;;;;;;;;;;;;;-144.47;100.00;61586.06;4949722;29;19918;-81
2022/12/30 06:13:02;;;;;;;;;;;;;;;-144.47;100.00;61586.06;4951369;29;20457;-81
2022/12/30 06:15:27;;;;;;;;;;;;;;;-144.47;100.00;61586.06;4948119;28;19926;-82
2022/12/30 06:17:52;;;;;;;;;;;;;;;-144.47;100.00;61586.06;4969186;28;20008;-81
2022/12/30 06:20:18;;;;;;;;;;;;;;;-144.47;100.00;61586.06;4946814;29;20037;-86
2022/12/30 06:22:43;;;;;;;;;;;;;;;-144.47;100.00;61586.06;4948357;28;19961;-83
2022/12/30 06:25:09;;;;;;;;;;;;;;;-144.47;100.00;61586.06;4950874;29;19960;-80
2022/12/30 06:27:34;;;;;;;;;;;;;;;-144.47;100.00;61586.06;4951645;28;19968;-82
2022/12/30 06:29:59;;;;;;;;;;;;;;;-144.47;100.00;61586.06;4946234;28;19918;-82
2022/12/30 06:32:24;;;;;;;;;;;;;;;-144.47;100.00;61586.06;4948502;28;19930;-83
2022/12/30 06:34:50;;;;;;;;;;;;;;;-144.47;100.00;61586.06;4952310;28;20397;-83
2022/12/30 06:37:15;;;;;;;;;;;;;;;-144.47;100.00;61586.06;4954940;29;19918;-84
2022/12/30 06:39:41;;;;;;;;;;;;;;;-144.47;100.00;61586.06;4950871;28;19918;-87
2022/12/30 06:42:06;;;;;;;;;;;;;;;-144.47;100.00;61586.06;4954484;28;19918;-87
2022/12/30 06:44:31;;;;;;;;;;;;;;;-144.47;100.00;61586.06;4950871;29;19918;-87
2022/12/30 06:46:56;;;;;;;;;;;;;;;-144.47;100.00;61586.06;4967577;28;19920;-86
2022/12/30 06:49:23;;;;;;;;;;;;;;;-144.47;100.00;61586.06;4950455;28;20342;-86
2022/12/30 06:51:48;;;;;;;;;;;;;;;-144.47;100.00;61586.06;4948072;28;20017;-86
2022/12/30 06:54:13;;;;;;;;;;;;;;;-144.47;100.00;61586.06;4950534;28;19918;-83
2022/12/30 06:56:39;;;;;;;;;;;;;;;-144.47;100.00;61586.06;4946210;28;19918;-82
2022/12/30 06:59:04;;;;;;;;;;;;;;;-144.47;100.00;61586.06;4948752;28;19919;-80
2022/12/30 07:01:29;;;;;;;;;;;;;;;-144.47;100.00;61586.06;4949226;29;19934;-82
2022/12/30 07:03:54;;;;;;;;;;;;;;;-144.47;100.00;61586.06;4949340;29;19925;-82
2022/12/30 07:06:20;;;;;;;;;;;;;;;-144.47;100.00;61586.06;4960611;22;19926;-84
2022/12/30 07:08:47;;;;;;;;;;;;;;;-144.47;100.00;61586.06;4935912;29;19926;-83
2022/12/30 07:11:12;;;;;;;;;;;;;;;-144.47;100.00;61586.06;4935872;28;19919;-83
2022/12/30 07:13:37;;;;;;;;;;;;;;;-144.47;100.00;61586.06;4943921;28;20235;-82
2022/12/30 07:16:03;;;;;;;;;;;;;;;-144.47;100.00;61586.06;4940898;29;19934;-81
2022/12/30 07:18:28;;;;;;;;;;;;;;;-144.47;100.00;61586.06;4945708;28;20410;-83
2022/12/30 07:20:54;;;;;;;;;;;;;;;-144.47;100.00;61586.06;4947356;28;19918;-83
2022/12/30 07:23:20;;;;;;;;;;;;;;;-144.47;100.00;61586.06;4942164;28;19919;-82
2022/12/30 07:25:46;;;;;;;;;;;;;;;-144.47;100.00;61586.06;4952653;28;19919;-83
2022/12/30 07:28:12;;;;;;;;;;;;;;;-144.47;100.00;61586.06;4936411;28;19955;-82
2022/12/30 07:30:37;;;;;;;;;;;;;;;-144.47;100.00;61586.06;4940841;29;19982;-83
2022/12/30 07:33:03;;;;;;;;;;;;;;;-144.47;100.00;61586.06;4932972;28;20275;-82
2022/12/30 07:35:28;;;;;;;;;;;;;;;-144.47;100.00;61586.06;4934922;29;19927;-83
2022/12/30 07:37:53;;;;;;;;;;;;;;;-144.47;100.00;61586.06;4938747;28;19923;-88
2022/12/30 07:40:22;;;;;;;;;;;;;;;-144.47;100.00;61586.06;4953744;29;19930;-87
2022/12/30 07:42:48;;;;;;;;;;;;;;;-144.47;100.00;61586.06;4939997;28;19929;-82
2022/12/30 07:45:13;;;;;;;;;;;;;;;-144.47;100.00;61586.06;4935592;29;20042;-80
2022/12/30 07:47:42;;;;;;;;;;;;;;;-144.47;100.00;61586.06;4929412;29;20005;-83
2022/12/30 07:50:08;;;;;;;;;;;;;;;-144.47;100.00;61586.06;4935524;28;19965;-82
2022/12/30 07:52:34;;;;;;;;;;;;;;;-144.47;100.00;61586.06;4932694;28;20310;-80
2022/12/30 07:54:59;;;;;;;;;;;;;;;-144.47;100.00;61586.06;4933598;28;19961;-79
2022/12/30 07:57:24;;;;;;;;;;;;;;;-144.47;100.00;61586.06;4933122;29;19933;-81
2022/12/30 07:59:51;;;;;;;;;;;;;;;-144.47;100.00;61586.06;4928916;28;19964;-77
2022/12/30 08:02:16;;;;;;;;;;;;;;;-144.47;100.00;61586.06;4934025;29;20415;-81
2022/12/30 08:04:41;;;;;;;;;;;;;;;-144.47;100.00;61586.06;4931907;28;20009;-78
2022/12/30 08:07:07;;;;;;;;;;;;;;;-144.47;100.00;61586.06;4954323;28;19925;-79
2022/12/30 08:09:32;;;;;;;;;;;;;;;-144.47;100.00;61586.06;4932116;29;20010;-79
2022/12/30 08:11:58;;;;;;;;;;;;;;;-144.47;100.00;61586.06;4933445;28;19918;-80
2022/12/30 08:14:24;;;;;;;;;;;;;;;-144.47;100.00;61586.06;4931664;29;19997;-78
2022/12/30 08:16:49;;;;;;;;;;;;;;;-144.47;100.00;61586.06;4941544;28;19919;-80
2022/12/30 08:19:15;;;;;;;;;;;;;;;-144.47;100.00;61586.06;4931640;29;19961;-79
2022/12/30 08:21:40;;;;;;;;;;;;;;;-144.47;100.00;61586.06;4930323;29;19919;-79
2022/12/30 08:24:06;;;;;;;;;;;;;;;-144.47;100.00;61586.06;4932943;29;20005;-79
2022/12/30 08:26:32;;;;;;;;;;;;;;;-144.47;100.00;61586.06;4932452;28;19926;-79
2022/12/30 08:28:57;;;;;;;;;;;;;;;-144.47;100.00;61586.06;4933502;28;19922;-78
2022/12/30 08:31:24;;;;;;;;;;;;;;;-144.47;100.00;61586.06;4924701;29;19915;-79
2022/12/30 08:33:50;;;;;;;;;;;;;;;-144.47;100.00;61586.06;4931743;29;19938;-79
2022/12/30 08:36:17;;;;;;;;;;;;;;;-144.47;100.00;61586.06;4928191;28;19982;-78
2022/12/30 08:38:44;;;;;;;;;;;;;;;-144.47;100.00;61586.06;4930622;28;20416;-79
2022/12/30 08:41:11;;;;;;;;;;;;;;;-144.47;100.00;61586.06;4930473;28;19961;-77
2022/12/30 08:43:37;;;;;;;;;;;;;;;-144.47;100.00;61586.06;4932145;28;19915;-79
2022/12/30 08:46:03;;;;;;;;;;;;;;;-144.47;100.00;61586.06;4928315;29;19925;-79
2022/12/30 08:48:28;;;;;;;;;;;;;;;-144.47;100.00;61586.06;4932887;29;19925;-78
2022/12/30 08:50:55;;;;;;;;;;;;;;;-144.47;100.00;61586.06;4928425;29;19914;-81
2022/12/30 08:53:20;;;;;;;;;;;;;;;-144.47;100.00;61586.06;4934805;29;19937;-79
2022/12/30 08:55:46;;;;;;;;;;;;;;;-144.47;100.00;61586.06;4926619;29;19915;-80
2022/12/30 08:58:11;;;;;;;;;;;;;;;-144.47;100.00;61586.06;4930098;29;19919;-78
2022/12/30 09:00:37;;;;;;;;;;;;;;;-144.47;100.00;61586.06;4933076;29;20073;-80
2022/12/30 09:03:03;;;;;;;;;;;;;;;-144.47;100.00;61586.06;4930969;29;19998;-77
2022/12/30 09:05:28;;;;;;;;;;;;;;;-144.47;100.00;61586.06;4927100;28;19925;-79
2022/12/30 09:07:54;;;;;;;;;;;;;;;-144.47;100.00;61586.06;4938986;28;19998;-79
2022/12/30 09:10:19;;;;;;;;;;;;;;;-144.47;100.00;61586.06;4926598;28;19924;-78
2022/12/30 09:12:45;;;;;;;;;;;;;;;-144.47;100.00;61586.06;4932390;29;19926;-81
2022/12/30 09:15:11;;;;;;;;;;;;;;;-144.47;100.00;61586.06;4943174;28;19961;-81
2022/12/30 09:17:36;;;;;;;;;;;;;;;-144.47;100.00;61586.06;4926486;29;19926;-81
2022/12/30 09:20:02;;;;;;;;;;;;;;;-144.47;100.00;61586.06;4930386;28;19927;-79
2022/12/30 09:22:27;;;;;;;;;;;;;;;-144.47;100.00;61586.06;4932279;29;19925;-79
2022/12/30 09:24:53;;;;;;;;;;;;;;;-144.47;100.00;61586.06;4930613;28;19918;-79
2022/12/30 09:27:18;;;;;;;;;;;;;;;-144.47;100.00;61586.06;4933162;29;19923;-81
2022/12/30 09:29:43;;;;;;;;;;;;;;;-144.47;100.00;61586.06;4932134;28;19923;-79
2022/12/30 09:32:09;;;;;;;;;;;;;;;-144.47;100.00;61586.06;4930645;28;20000;-80
2022/12/30 09:34:34;;;;;;;;;;;;;;;-144.47;100.00;61586.06;4930873;28;19919;-79
2022/12/30 09:37:00;;;;;;;;;;;;;;;-144.47;100.00;61586.06;4933437;28;19919;-80
2022/12/30 09:39:30;;;;;;;;;;;;;;;-144.47;100.00;61586.06;4935641;29;19919;-80
2022/12/30 09:44:55;;;;;;;;;;;;;;;-144.47;100.00;61586.06;4935459;28;19919;-80
2022/12/30 09:47:32;;;;;;;;;;;;;;;-144.47;100.00;61586.06;4929275;28;20227;-79
2022/12/30 09:50:06;;;;;;;;;;;;;;;-144.47;100.00;61586.06;4932676;29;19929;-79
2022/12/30 09:52:48;;;;;;;;;;;;;;;-144.47;100.00;61586.06;4932857;29;20364;-79
2022/12/30 09:55:17;;;;;;;;;;;;;;;-144.47;100.00;61586.06;4934305;28;19926;-79
2022/12/30 09:57:46;;;;;;;;;;;;;;;-144.47;100.00;61586.06;4932516;29;19914;-80
2022/12/30 10:00:14;;;;;;;;;;;;;;;-144.47;100.00;61586.06;4936528;29;20355;-79
2022/12/30 10:02:52;;;;;;;;;;;;;;;-144.47;100.00;61586.06;4931042;28;19968;-81
2022/12/30 10:05:23;;;;;;;;;;;;;;;-144.47;100.00;61586.06;4947368;28;20026;-79
2022/12/30 10:07:56;;;;;;;;;;;;;;;-144.47;100.00;61586.06;4938901;28;20002;-79
2022/12/30 10:10:35;;;;;;;;;;;;;;;-144.47;100.00;61586.06;4934174;28;19927;-79
2022/12/30 10:13:22;;;;;;;;;;;;;;;-144.47;100.00;61586.06;4934931;29;20378;-79
2022/12/30 10:15:55;;;;;;;;;;;;;;;-144.47;100.00;61586.06;4931186;29;20374;-79
2022/12/30 10:18:27;;;;;;;;;;;;;;;-144.47;100.00;61586.06;4933941;29;19919;-79
2022/12/30 10:20:59;;;;;;;;;;;;;;;-144.47;100.00;61586.06;4934563;29;19915;-79
2022/12/30 10:23:31;;;;;;;;;;;;;;;-144.47;100.00;61586.06;4925892;29;20014;-80
2022/12/30 10:26:02;;;;;;;;;;;;;;;-144.47;100.00;61586.06;4937011;29;20438;-80
2022/12/30 10:28:32;;;;;;;;;;;;;;;-144.47;100.00;61586.06;4934246;29;19958;-80
2022/12/30 10:30:57;;;;;;;;;;;;;;;-144.47;100.00;61586.06;4949923;28;19926;-80
2022/12/30 10:33:23;;;;;;;;;;;;;;;-144.47;100.00;61586.06;4931891;29;19919;-80
2022/12/30 10:35:52;;;;;;;;;;;;;;;-144.47;100.00;61586.06;4930917;29;20010;-80
2022/12/30 10:38:20;;;;;;;;;;;;;;;-144.47;100.00;61586.06;4931577;28;19957;-79
2022/12/30 10:40:50;;;;;;;;;;;;;;;-144.47;100.00;61586.06;4931784;28;20041;-80
2022/12/30 10:43:25;;;;;;;;;;;;;;;-144.47;100.00;61586.06;4928623;29;20361;-80
2022/12/30 10:45:59;;;;;;;;;;;;;;;-144.47;100.00;61586.06;4931960;28;19929;-80
2022/12/30 10:48:40;;;;;;;;;;;;;;;-144.47;100.00;61586.06;4931019;29;19997;-80
2022/12/30 10:51:06;;;;;;;;;;;;;;;-144.47;100.00;61586.06;4931113;29;20369;-80
2022/12/30 10:53:31;;;;;;;;;;;;;;;-144.47;100.00;61586.06;4932926;29;19976;-79
2022/12/30 10:55:58;;;;;;;;;;;;;;;-144.47;100.00;61586.06;4928016;29;19945;-80
2022/12/30 10:58:41;;;;;;;;;;;;;;;-144.47;100.00;61586.06;4933189;29;20331;-80
2022/12/30 11:01:27;;;;;;;;;;;;;;;-144.47;100.00;61586.06;4932888;29;20293;-80
2022/12/30 11:03:56;;;;;;;;;;;;;;;-144.47;100.00;61586.06;4927570;28;20371;-80
2022/12/30 11:06:26;;;;;;;;;;;;;;;-144.47;100.00;61586.06;4931753;28;19919;-80
2022/12/30 11:08:53;;;;;;;;;;;;;;;-144.47;100.00;61586.06;4934740;28;19923;-81
2022/12/30 11:11:18;;;;;;;;;;;;;;;-144.47;100.00;61586.06;4932714;29;20201;-80
2022/12/30 11:16:38;;;;;;;;;;;;;;;-144.47;100.00;61586.06;4929071;28;20260;-79
2022/12/30 11:19:04;;;;;;;;;;;;;;;-144.47;100.00;61586.06;4931395;29;19972;-80
2022/12/30 11:21:31;;;;;;;;;;;;;;;-144.47;100.00;61586.06;4931518;28;19947;-79
2022/12/30 11:23:58;;;;;;;;;;;;;;;-144.47;100.00;61586.06;4932038;29;19919;-79
2022/12/30 11:26:25;;;;;;;;;;;;;;;-144.47;100.00;61586.06;4929626;29;19941;-79
2022/12/30 11:28:58;;;;;;;;;;;;;;;-144.47;100.00;61586.06;4929114;29;19991;-80
2022/12/30 11:31:40;;;;;;;;;;;;;;;-144.47;100.00;61586.06;4927925;28;20500;-79
2022/12/30 11:34:05;;;;;;;;;;;;;;;-144.47;100.00;61586.06;4930582;28;19918;-79
2022/12/30 11:36:32;;;;;;;;;;;;;;;-144.47;100.00;61586.06;4926410;28;19914;-78
2022/12/30 11:39:04;;;;;;;;;;;;;;;-144.47;100.00;61586.06;4931916;28;19949;-80
2022/12/30 11:41:30;;;;;;;;;;;;;;;-144.47;100.00;61586.06;4926924;29;19922;-78
2022/12/30 11:43:56;;;;;;;;;;;;;;;-144.47;100.00;61586.06;4928940;29;19919;-79
2022/12/30 11:46:23;;;;;;;;;;;;;;;-144.47;100.00;61586.06;4929418;29;19930;-79
2022/12/30 11:48:57;;;;;;;;;;;;;;;-144.47;100.00;61586.06;4928452;29;20008;-79
2022/12/30 11:51:33;;;;;;;;;;;;;;;-144.47;100.00;61586.06;4930042;28;19923;-78
2022/12/30 11:54:04;;;;;;;;;;;;;;;-144.47;100.00;61586.06;4928044;28;20308;-79
2022/12/30 11:56:30;;;;;;;;;;;;;;;-144.47;100.00;61586.06;4928592;29;19926;-81
2022/12/30 11:58:58;;;;;;;;;;;;;;;-144.47;100.00;61586.06;4928546;29;19926;-80
2022/12/30 12:01:23;;;;;;;;;;;;;;;-144.47;100.00;61586.06;4929476;28;20290;-80
2022/12/30 12:03:51;;;;;;;;;;;;;;;-144.47;100.00;61586.06;4929747;29;19929;-80
2022/12/30 12:06:17;;;;;;;;;;;;;;;-144.47;100.00;61586.06;4934690;28;19919;-80
2022/12/30 12:08:56;;;;;;;;;;;;;;;-144.47;100.00;61586.06;4927810;28;19919;-80
2022/12/30 12:11:39;;;;;;;;;;;;;;;-144.47;100.00;61586.06;4927747;29;19994;-80
2022/12/30 12:14:11;;;;;;;;;;;;;;;-144.47;100.00;61586.06;4930287;28;19918;-79
2022/12/30 12:16:46;;;;;;;;;;;;;;;-144.47;100.00;61586.06;4925896;28;19919;-78
2022/12/30 12:19:25;;;;;;;;;;;;;;;-144.47;100.00;61586.06;4927438;29;19923;-79
2022/12/30 12:21:54;;;;;;;;;;;;;;;-144.47;100.00;61586.06;4925348;28;19919;-79
2022/12/30 12:24:23;;;;;;;;;;;;;;;-144.47;100.00;61586.06;4928139;28;19984;-79
2022/12/30 12:27:03;;;;;;;;;;;;;;;-144.47;100.00;61586.06;4928813;28;19935;-79
2022/12/30 12:29:29;;;;;;;;;;;;;;;-144.47;100.00;61586.06;4925743;29;20043;-80
2022/12/30 12:32:14;;;;;;;;;;;;;;;-144.47;100.00;61586.06;4929294;29;20014;-79
2022/12/30 12:34:43;;;;;;;;;;;;;;;-144.47;100.00;61586.06;4928969;28;20280;-81
2022/12/30 12:37:21;;;;;;;;;;;;;;;-144.47;100.00;61586.06;4928272;28;19919;-81
2022/12/30 12:40:01;;;;;;;;;;;;;;;-144.47;100.00;61586.06;4928586;28;19925;-80
2022/12/30 12:42:32;;;;;;;;;;;;;;;-144.47;100.00;61586.06;4926698;29;19925;-80
2022/12/30 12:45:09;;;;;;;;;;;;;;;-144.47;100.00;61586.06;4929741;29;20001;-78
2022/12/30 12:47:41;;;;;;;;;;;;;;;-144.47;100.00;61586.06;4926509;28;19926;-81
2022/12/30 12:50:28;;;;;;;;;;;;;;;-144.47;100.00;61586.06;4928107;29;19918;-81
2022/12/30 12:53:04;;;;;;;;;;;;;;;-144.47;100.00;61586.06;4930105;29;19919;-80
2022/12/30 12:55:53;;;;;;;;;;;;;;;-144.47;100.00;61586.06;4934455;28;19931;-80
2022/12/30 12:58:28;;;;;;;;;;;;;;;-144.47;100.00;61586.06;4934537;28;19950;-80
2022/12/30 13:01:10;;;;;;;;;;;;;;;-144.47;100.00;61586.06;4927931;28;19926;-80
2022/12/30 13:03:53;;;;;;;;;;;;;;;-144.47;100.00;61586.06;4925004;28;19958;-81
2022/12/30 13:06:43;;;;;;;;;;;;;;;-144.47;100.00;61586.06;4927557;28;20065;-80
2022/12/30 13:09:08;;;;;;;;;;;;;;;-144.47;100.00;61586.06;4925729;28;19973;-79
2022/12/30 13:11:38;;;;;;;;;;;;;;;-144.47;100.00;61586.06;4927273;28;19919;-79
2022/12/30 13:14:22;;;;;;;;;;;;;;;-144.47;100.00;61586.06;4928175;28;19926;-79
2022/12/30 13:16:51;;;;;;;;;;;;;;;-144.47;100.00;61586.06;4924764;28;20013;-79